createdAt,value
2018-10-18T00:02:04.418Z,23.73
2018-10-18T00:07:32.164Z,24.23
2018-10-18T00:10:00.645Z,23.47
2018-10-18T00:12:29.147Z,25.12
2018-10-18T00:14:57.601Z,24.93
2018-10-18T00:17:31.450Z,24.67
2018-10-18T00:20:00.063Z,24.30
2018-10-18T00:22:28.494Z,24.37
2018-10-18T00:24:57.044Z,25.25
2018-10-18T00:27:25.552Z,25.08
2018-10-18T00:29:54.128Z,24.77
2018-10-18T00:32:22.598Z,24.67
2018-10-18T00:34:51.118Z,24.70
2018-10-18T00:37:19.632Z,25.03
2018-10-18T00:39:48.132Z,25.52
2018-10-18T00:42:16.695Z,24.55
2018-10-18T00:44:45.199Z,26.55
2018-10-18T00:47:13.718Z,26.70
2018-10-18T00:49:42.295Z,26.73
2018-10-18T00:52:10.803Z,26.23
2018-10-18T00:54:39.313Z,27.97
2018-10-18T00:57:07.857Z,27.48
2018-10-18T00:59:36.400Z,25.30
2018-10-18T01:02:05.063Z,26.27
2018-10-18T01:04:33.527Z,26.33
2018-10-18T01:07:02.122Z,25.02
2018-10-18T01:09:30.621Z,25.48
2018-10-18T01:11:59.280Z,24.50
2018-10-18T01:14:27.776Z,25.75
2018-10-18T01:17:04.874Z,24.52
2018-10-18T01:19:35.669Z,23.92
2018-10-18T01:22:05.543Z,23.38
2018-10-18T01:24:34.399Z,23.38
2018-10-18T01:27:02.956Z,23.20
2018-10-18T01:29:31.475Z,23.35
2018-10-18T01:32:00.293Z,23.42
2018-10-18T01:34:29.165Z,22.93
2018-10-18T01:36:57.707Z,25.17
2018-10-18T01:39:26.237Z,23.67
2018-10-18T01:41:54.750Z,23.37
2018-10-18T01:44:23.266Z,23.77
2018-10-18T01:46:52.036Z,23.47
2018-10-18T01:49:20.596Z,22.57
2018-10-18T01:51:49.067Z,24.47
2018-10-18T01:54:17.701Z,22.10
2018-10-18T01:56:46.123Z,22.93
2018-10-18T01:59:14.636Z,23.38
2018-10-18T02:01:43.129Z,22.20
2018-10-18T02:04:11.699Z,22.07
2018-10-18T02:06:40.188Z,22.17
2018-10-18T02:09:10.938Z,21.48
2018-10-18T02:11:39.548Z,21.23
2018-10-18T02:14:08.072Z,23.00
2018-10-18T02:16:36.803Z,22.95
2018-10-18T02:19:05.565Z,22.52
2018-10-18T02:21:34.068Z,22.00
2018-10-18T02:24:02.687Z,22.20
2018-10-18T02:26:31.189Z,21.87
2018-10-18T02:28:59.693Z,23.15
2018-10-18T02:31:28.190Z,22.30
2018-10-18T02:33:56.726Z,22.02
2018-10-18T02:36:25.215Z,21.97
2018-10-18T02:38:53.773Z,22.13
2018-10-18T02:41:22.272Z,22.70
2018-10-18T02:43:51.204Z,22.60
2018-10-18T02:46:19.690Z,23.47
2018-10-18T02:48:48.996Z,23.25
2018-10-18T02:51:17.751Z,23.25
2018-10-18T02:53:46.624Z,23.90
2018-10-18T02:56:15.204Z,24.45
2018-10-18T02:58:43.721Z,23.85
2018-10-18T03:01:12.247Z,24.50
2018-10-18T03:03:41.360Z,23.47
2018-10-18T03:06:09.880Z,23.25
2018-10-18T03:08:38.343Z,23.83
2018-10-18T03:11:06.955Z,24.90
2018-10-18T03:13:35.546Z,24.75
2018-10-18T03:16:04.206Z,24.23
2018-10-18T03:18:32.705Z,24.70
2018-10-18T03:21:01.193Z,25.33
2018-10-18T03:23:29.752Z,24.63
2018-10-18T03:25:58.281Z,24.50
2018-10-18T03:28:26.805Z,25.30
2018-10-18T03:30:55.307Z,25.68
2018-10-18T03:33:23.853Z,25.75
2018-10-18T03:35:52.382Z,25.00
2018-10-18T03:38:20.936Z,25.23
2018-10-18T03:40:49.480Z,24.67
2018-10-18T03:43:17.941Z,24.75
2018-10-18T03:45:46.491Z,24.32
2018-10-18T03:48:15.041Z,24.02
2018-10-18T03:50:43.554Z,23.87
2018-10-18T03:53:12.021Z,25.97
2018-10-18T03:55:40.584Z,24.30
2018-10-18T03:58:09.121Z,24.70
2018-10-18T04:00:37.573Z,24.37
2018-10-18T04:03:06.111Z,25.77
2018-10-18T04:05:34.607Z,25.63
2018-10-18T04:08:03.252Z,25.77
2018-10-18T04:10:31.827Z,26.70
2018-10-18T04:13:00.412Z,26.05
2018-10-18T04:15:28.915Z,25.72
2018-10-18T04:17:57.500Z,25.07
2018-10-18T04:20:26.012Z,26.50
2018-10-18T04:22:54.576Z,26.57
2018-10-18T04:25:23.044Z,26.52
2018-10-18T04:27:51.566Z,26.35
2018-10-18T04:30:20.084Z,25.23
2018-10-18T04:32:48.580Z,26.80
2018-10-18T04:35:17.055Z,26.00
2018-10-18T04:37:45.508Z,25.55
2018-10-18T04:40:14.137Z,26.90
2018-10-18T04:42:42.583Z,24.57
2018-10-18T04:45:11.178Z,24.50
2018-10-18T04:47:39.690Z,25.35
2018-10-18T04:50:08.872Z,25.52
2018-10-18T04:52:44.049Z,25.05
2018-10-18T04:55:12.577Z,24.30
2018-10-18T04:57:41.115Z,23.87
2018-10-18T05:00:09.656Z,24.17
2018-10-18T05:02:38.690Z,23.85
2018-10-18T05:05:18.512Z,24.87
2018-10-18T05:07:46.981Z,25.72
2018-10-18T05:10:15.512Z,24.07
2018-10-18T05:12:44.184Z,24.72
2018-10-18T05:15:12.518Z,24.40
2018-10-18T05:17:41.016Z,26.07
2018-10-18T05:20:09.613Z,24.12
2018-10-18T05:22:38.250Z,24.93
2018-10-18T05:25:06.861Z,25.70
2018-10-18T05:27:35.301Z,24.80
2018-10-18T05:30:03.835Z,24.27
2018-10-18T05:32:32.320Z,25.80
2018-10-18T05:35:00.801Z,24.98
2018-10-18T05:37:29.354Z,25.60
2018-10-18T05:39:57.812Z,25.80
2018-10-18T05:42:26.313Z,26.93
2018-10-18T05:44:54.794Z,25.90
2018-10-18T05:47:23.367Z,25.72
2018-10-18T05:49:51.882Z,25.35
2018-10-18T05:52:20.380Z,27.20
2018-10-18T05:54:48.834Z,25.65
2018-10-18T05:57:17.382Z,25.97
2018-10-18T05:59:52.545Z,25.62
2018-10-18T06:02:21.088Z,26.17
2018-10-18T06:04:49.549Z,24.45
2018-10-18T06:07:18.180Z,26.68
2018-10-18T06:09:46.685Z,25.88
2018-10-18T06:12:15.201Z,26.90
2018-10-18T06:14:43.667Z,26.53
2018-10-18T06:17:12.205Z,27.27
2018-10-18T06:19:40.766Z,27.02
2018-10-18T06:22:09.291Z,27.27
2018-10-18T06:24:38.008Z,26.40
2018-10-18T06:27:06.544Z,26.85
2018-10-18T06:29:35.024Z,29.02
2018-10-18T06:32:04.847Z,28.83
2018-10-18T06:34:33.334Z,28.67
2018-10-18T06:37:01.806Z,28.73
2018-10-18T06:39:30.324Z,28.83
2018-10-18T06:41:59.173Z,29.45
2018-10-18T06:44:27.716Z,30.30
2018-10-18T06:46:56.277Z,30.90
2018-10-18T06:49:24.797Z,30.43
2018-10-18T06:51:53.298Z,31.35
2018-10-18T06:54:21.860Z,32.23
2018-10-18T06:56:50.644Z,31.12
2018-10-18T06:59:19.238Z,33.50
2018-10-18T07:01:47.790Z,31.73
2018-10-18T07:04:16.309Z,32.25
2018-10-18T07:06:44.800Z,34.53
2018-10-18T07:09:13.304Z,32.40
2018-10-18T07:11:41.824Z,32.50
2018-10-18T07:14:10.347Z,32.47
2018-10-18T07:16:38.851Z,32.40
2018-10-18T07:19:07.374Z,32.58
2018-10-18T07:21:35.866Z,33.63
2018-10-18T07:24:04.471Z,35.40
2018-10-18T07:26:32.954Z,34.08
2018-10-18T07:29:01.483Z,37.30
2018-10-18T07:31:30.159Z,38.28
2018-10-18T07:33:58.749Z,38.98
2018-10-18T07:36:27.340Z,38.90
2018-10-18T07:38:55.818Z,41.95
2018-10-18T07:41:24.356Z,41.45
2018-10-18T07:43:52.863Z,45.67
2018-10-18T07:46:21.383Z,45.30
2018-10-18T07:48:49.846Z,46.58
2018-10-18T07:51:18.320Z,44.30
2018-10-18T07:53:46.845Z,44.40
2018-10-18T07:56:15.450Z,43.92
2018-10-18T07:58:44.006Z,41.50
2018-10-18T08:01:12.505Z,41.77
2018-10-18T08:03:41.090Z,40.08
2018-10-18T08:06:09.678Z,39.45
2018-10-18T08:08:38.257Z,37.73
2018-10-18T08:11:06.846Z,37.48
2018-10-18T08:13:35.376Z,37.00
2018-10-18T08:16:03.901Z,36.55
2018-10-18T08:18:32.494Z,36.98
2018-10-18T08:21:01.003Z,36.75
2018-10-18T08:23:29.645Z,37.17
2018-10-18T08:25:58.282Z,35.63
2018-10-18T08:28:26.748Z,35.47
2018-10-18T08:30:55.361Z,36.65
2018-10-18T08:33:25.143Z,36.23
2018-10-18T08:35:54.029Z,36.45
2018-10-18T08:38:23.209Z,36.13
2018-10-18T08:40:51.883Z,37.48
2018-10-18T08:43:21.625Z,36.40
2018-10-18T08:45:50.477Z,37.38
2018-10-18T08:48:19.194Z,36.68
2018-10-18T08:50:47.884Z,34.05
2018-10-18T08:53:16.743Z,30.48
2018-10-18T08:55:45.255Z,29.18
2018-10-18T08:58:14.333Z,28.77
2018-10-18T09:00:43.115Z,25.97
2018-10-18T09:03:11.651Z,25.20
2018-10-18T09:05:40.707Z,24.40
2018-10-18T09:08:09.200Z,22.27
2018-10-18T09:10:37.712Z,23.07
2018-10-18T09:13:06.240Z,22.77
2018-10-18T09:15:34.828Z,21.67
2018-10-18T09:18:03.443Z,21.45
2018-10-18T09:20:31.898Z,20.60
2018-10-18T09:23:00.418Z,19.65
2018-10-18T09:25:28.906Z,19.73
2018-10-18T09:27:57.462Z,19.00
2018-10-18T09:30:26.036Z,18.80
2018-10-18T09:32:54.601Z,18.42
2018-10-18T09:35:23.167Z,18.30
2018-10-18T09:37:51.660Z,18.77
2018-10-18T09:40:20.260Z,17.80
2018-10-18T09:42:48.814Z,18.45
2018-10-18T09:45:17.312Z,16.60
2018-10-18T09:47:45.861Z,16.82
2018-10-18T09:50:14.459Z,16.67
2018-10-18T09:52:42.923Z,16.70
2018-10-18T09:55:12.674Z,16.85
2018-10-18T09:57:41.313Z,16.35
2018-10-18T10:00:15.232Z,15.80
2018-10-18T10:02:51.143Z,15.18
2018-10-18T10:05:20.539Z,15.75
2018-10-18T10:07:49.028Z,14.68
2018-10-18T10:10:17.564Z,14.85
2018-10-18T10:12:46.062Z,14.50
2018-10-18T10:15:14.547Z,14.15
2018-10-18T10:17:43.129Z,14.00
2018-10-18T10:20:11.610Z,14.90
2018-10-18T10:22:40.195Z,14.30
2018-10-18T10:25:08.775Z,14.25
2018-10-18T10:27:37.528Z,14.53
2018-10-18T10:30:06.781Z,13.77
2018-10-18T10:32:35.396Z,13.60
2018-10-18T10:35:04.249Z,14.40
2018-10-18T10:37:32.773Z,14.33
2018-10-18T10:40:01.329Z,13.40
2018-10-18T10:42:29.890Z,13.13
2018-10-18T10:44:58.424Z,12.75
2018-10-18T10:47:26.975Z,12.50
2018-10-18T10:49:55.514Z,13.20
2018-10-18T10:52:24.089Z,13.10
2018-10-18T10:54:52.575Z,13.63
2018-10-18T10:57:21.103Z,14.30
2018-10-18T10:59:50.483Z,13.10
2018-10-18T11:02:18.967Z,12.63
2018-10-18T11:04:47.480Z,12.25
2018-10-18T11:07:15.994Z,11.88
2018-10-18T11:09:44.638Z,12.58
2018-10-18T11:12:13.074Z,11.95
2018-10-18T11:14:41.680Z,11.03
2018-10-18T11:17:10.191Z,11.50
2018-10-18T11:19:38.798Z,10.90
2018-10-18T11:22:07.847Z,11.10
2018-10-18T11:24:36.644Z,11.05
2018-10-18T11:27:05.223Z,10.20
2018-10-18T11:29:33.892Z,9.65
2018-10-18T11:32:02.546Z,10.40
2018-10-18T11:34:31.117Z,9.88
2018-10-18T11:36:59.625Z,9.28
2018-10-18T11:39:28.248Z,9.35
2018-10-18T11:41:56.968Z,9.48
2018-10-18T11:44:43.054Z,9.10
2018-10-18T11:47:12.450Z,9.63
2018-10-18T11:49:41.692Z,9.40
2018-10-18T11:52:10.363Z,8.48
2018-10-18T11:54:38.989Z,9.90
2018-10-18T11:57:07.558Z,9.45
2018-10-18T11:59:36.094Z,9.25
2018-10-18T12:02:05.496Z,9.18
2018-10-18T12:04:34.012Z,8.58
2018-10-18T12:07:02.596Z,9.25
2018-10-18T12:09:31.222Z,8.13
2018-10-18T12:11:59.757Z,8.10
2018-10-18T12:14:28.355Z,8.43
2018-10-18T12:16:56.949Z,8.80
2018-10-18T12:19:25.542Z,8.53
2018-10-18T12:21:54.152Z,8.78
2018-10-18T12:24:22.733Z,8.47
2018-10-18T12:26:51.362Z,9.33
2018-10-18T12:29:20.001Z,8.40
2018-10-18T12:31:48.523Z,9.08
2018-10-18T12:34:17.073Z,8.20
2018-10-18T12:36:45.684Z,8.43
2018-10-18T12:39:14.272Z,8.35
2018-10-18T12:41:42.998Z,7.75
2018-10-18T12:44:11.556Z,8.20
2018-10-18T12:46:40.049Z,7.97
2018-10-18T12:49:08.642Z,8.53
2018-10-18T12:51:37.400Z,8.30
2018-10-18T12:54:06.693Z,7.55
2018-10-18T12:56:35.333Z,8.38
2018-10-18T12:59:04.025Z,8.10
2018-10-18T13:01:32.592Z,8.03
2018-10-18T13:04:01.071Z,8.28
2018-10-18T13:06:29.559Z,8.25
2018-10-18T13:08:58.183Z,7.70
2018-10-18T13:11:26.750Z,7.55
2018-10-18T13:13:55.452Z,8.28
2018-10-18T13:16:24.221Z,7.80
2018-10-18T13:18:52.810Z,8.28
2018-10-18T13:21:21.387Z,8.25
2018-10-18T13:23:49.994Z,8.47
2018-10-18T13:26:18.622Z,8.50
2018-10-18T13:28:47.469Z,9.38
2018-10-18T13:31:15.986Z,9.10
2018-10-18T13:33:44.570Z,9.78
2018-10-18T13:36:13.218Z,9.83
2018-10-18T13:38:42.140Z,9.08
2018-10-18T13:41:10.666Z,9.78
2018-10-18T13:43:39.433Z,9.20
2018-10-18T13:46:07.992Z,9.87
2018-10-18T13:48:36.619Z,9.78
2018-10-18T13:51:05.480Z,10.00
2018-10-18T13:53:37.861Z,9.67
2018-10-18T13:56:06.497Z,9.90
2018-10-18T13:58:35.052Z,10.32
2018-10-18T14:01:03.649Z,10.05
2018-10-18T14:03:32.186Z,10.13
2018-10-18T14:06:00.924Z,10.00
2018-10-18T14:08:29.696Z,10.78
2018-10-18T14:10:58.171Z,10.17
2018-10-18T14:13:26.811Z,9.85
2018-10-18T14:15:55.503Z,10.95
2018-10-18T14:18:24.011Z,10.53
2018-10-18T14:20:52.628Z,10.70
2018-10-18T14:23:21.182Z,10.65
2018-10-18T14:25:49.705Z,11.47
2018-10-18T14:28:18.494Z,11.78
2018-10-18T14:30:47.121Z,10.95
2018-10-18T14:33:15.595Z,10.72
2018-10-18T14:35:44.139Z,11.57
2018-10-18T14:38:12.765Z,11.20
2018-10-18T14:40:41.258Z,11.73
2018-10-18T14:43:09.836Z,11.22
2018-10-18T14:45:38.385Z,11.43
2018-10-18T14:48:07.021Z,12.53
2018-10-18T14:50:35.861Z,12.45
2018-10-18T14:53:04.648Z,11.70
2018-10-18T14:55:33.502Z,11.75
2018-10-18T14:58:02.298Z,12.63
2018-10-18T15:00:30.856Z,13.10
2018-10-18T15:02:59.471Z,11.43
2018-10-18T15:05:28.072Z,12.30
2018-10-18T15:07:56.686Z,12.30
2018-10-18T15:10:25.309Z,12.60
2018-10-18T15:12:53.813Z,13.38
2018-10-18T15:15:22.418Z,13.10
2018-10-18T15:17:50.976Z,13.20
2018-10-18T15:20:19.622Z,12.88
2018-10-18T15:22:48.213Z,13.70
2018-10-18T15:25:17.019Z,13.75
2018-10-18T15:27:45.774Z,12.45
2018-10-18T15:30:14.149Z,13.70
2018-10-18T15:32:42.694Z,13.70
2018-10-18T15:35:12.133Z,13.13
2018-10-18T15:37:41.999Z,13.03
2018-10-18T15:40:10.625Z,13.20
2018-10-18T15:42:39.238Z,12.80
2018-10-18T15:45:08.206Z,13.15
2018-10-18T15:47:36.772Z,13.58
2018-10-18T15:50:06.860Z,13.20
2018-10-18T15:52:35.535Z,13.03
2018-10-18T15:55:04.280Z,13.28
2018-10-18T15:57:32.919Z,13.10
2018-10-18T16:00:01.437Z,13.10
2018-10-18T16:02:30.076Z,12.90
2018-10-18T16:04:58.712Z,13.00
2018-10-18T16:07:27.281Z,12.73
2018-10-18T16:09:55.836Z,13.25
2018-10-18T16:12:24.460Z,12.28
2018-10-18T16:14:53.841Z,13.03
2018-10-18T16:17:22.439Z,13.28
2018-10-18T16:19:51.116Z,14.03
2018-10-18T16:22:19.674Z,13.38
2018-10-18T16:24:48.217Z,13.15
2018-10-18T16:27:16.727Z,12.45
2018-10-18T16:29:45.201Z,13.50
2018-10-18T16:32:13.842Z,13.00
2018-10-18T16:34:42.395Z,13.50
2018-10-18T16:37:10.922Z,12.80
2018-10-18T16:39:39.531Z,12.50
2018-10-18T16:42:08.120Z,14.13
2018-10-18T16:44:36.619Z,13.30
2018-10-18T16:47:05.443Z,13.58
2018-10-18T16:49:34.357Z,13.00
2018-10-18T16:52:02.943Z,13.28
2018-10-18T16:54:31.497Z,13.40
2018-10-18T16:57:00.085Z,12.75
2018-10-18T16:59:28.724Z,12.23
2018-10-18T17:01:57.252Z,12.53
2018-10-18T17:04:25.889Z,12.07
2018-10-18T17:06:54.377Z,12.63
2018-10-18T17:09:22.946Z,11.00
2018-10-18T17:11:51.598Z,12.05
2018-10-18T17:14:20.235Z,11.45
2018-10-18T17:16:48.763Z,11.05
2018-10-18T17:19:17.437Z,11.55
2018-10-18T17:21:45.986Z,10.55
2018-10-18T17:24:14.783Z,11.17
2018-10-18T17:26:43.521Z,10.60
2018-10-18T17:29:11.922Z,9.90
2018-10-18T17:31:40.494Z,9.95
2018-10-18T17:34:09.236Z,9.33
2018-10-18T17:36:37.782Z,9.33
2018-10-18T17:39:08.691Z,9.63
2018-10-18T17:41:37.201Z,8.65
2018-10-18T17:44:06.542Z,8.90
2018-10-18T17:46:35.146Z,8.93
2018-10-18T17:49:03.788Z,9.03
2018-10-18T17:51:32.370Z,8.75
2018-10-18T17:54:00.901Z,9.10
2018-10-18T17:56:29.551Z,8.03
2018-10-18T17:58:58.016Z,8.98
2018-10-18T18:01:26.622Z,8.98
2018-10-18T18:03:55.223Z,9.38
2018-10-18T18:06:24.048Z,9.60
2018-10-18T18:08:52.496Z,10.58
2018-10-18T18:11:21.076Z,9.73
2018-10-18T18:13:49.643Z,10.75
2018-10-18T18:16:18.341Z,10.50
2018-10-18T18:18:46.841Z,10.30
2018-10-18T18:21:15.390Z,10.90
2018-10-18T18:23:44.127Z,10.78
2018-10-18T18:26:13.373Z,10.75
2018-10-18T18:28:41.922Z,10.77
2018-10-18T18:31:10.530Z,9.58
2018-10-18T18:33:39.360Z,8.98
2018-10-18T18:36:08.239Z,9.90
2018-10-18T18:38:39.714Z,9.20
2018-10-18T18:41:08.267Z,9.10
2018-10-18T18:43:36.872Z,9.18
2018-10-18T18:46:05.478Z,8.80
2018-10-18T18:48:33.983Z,9.20
2018-10-18T18:51:02.546Z,8.65
2018-10-18T18:53:31.333Z,8.98
2018-10-18T18:55:59.928Z,8.73
2018-10-18T18:58:28.660Z,8.80
2018-10-18T19:00:57.254Z,9.28
2018-10-18T19:03:25.757Z,8.65
2018-10-18T19:05:54.388Z,9.10
2018-10-18T19:08:23.023Z,8.88
2018-10-18T19:10:51.697Z,8.60
2018-10-18T19:13:20.306Z,8.35
2018-10-18T19:15:48.886Z,8.03
2018-10-18T19:18:20.577Z,8.70
2018-10-18T19:20:49.272Z,7.53
2018-10-18T19:23:18.047Z,7.20
2018-10-18T19:25:46.760Z,6.90
2018-10-18T19:28:15.257Z,6.90
2018-10-18T19:30:43.924Z,6.97
2018-10-18T19:33:12.496Z,6.08
2018-10-18T19:35:41.110Z,5.95
2018-10-18T19:38:09.748Z,6.15
2018-10-18T19:40:38.273Z,6.00
2018-10-18T19:43:06.874Z,5.55
2018-10-18T19:45:35.536Z,6.00
2018-10-18T19:48:04.146Z,5.47
2018-10-18T19:50:32.689Z,5.42
2018-10-18T19:53:02.207Z,4.95
2018-10-18T19:55:30.742Z,4.62
2018-10-18T19:57:59.283Z,4.92
2018-10-18T20:00:27.878Z,4.80
2018-10-18T20:02:56.459Z,4.23
2018-10-18T20:05:25.089Z,5.25
2018-10-18T20:07:53.779Z,4.77
2018-10-18T20:10:22.284Z,4.78
2018-10-18T20:12:50.870Z,4.30
2018-10-18T20:15:19.437Z,4.35
2018-10-18T20:17:47.945Z,4.70
2018-10-18T20:20:16.531Z,4.40
2018-10-18T20:22:45.073Z,3.83
2018-10-18T20:25:13.596Z,3.92
2018-10-18T20:27:42.338Z,4.10
2018-10-18T20:30:13.834Z,4.35
2018-10-18T20:32:42.769Z,3.95
2018-10-18T20:35:11.834Z,3.98
2018-10-18T20:37:40.919Z,4.28
2018-10-18T20:40:12.132Z,3.92
2018-10-18T20:42:41.018Z,3.75
2018-10-18T20:45:13.808Z,3.75
2018-10-18T20:47:42.845Z,3.90
2018-10-18T20:50:11.711Z,4.00
2018-10-18T20:52:40.270Z,3.70
2018-10-18T20:55:09.286Z,3.83
2018-10-18T20:57:37.829Z,3.55
2018-10-18T21:00:07.439Z,3.60
2018-10-18T21:02:35.897Z,3.98
2018-10-18T21:05:04.517Z,3.80
2018-10-18T21:07:33.066Z,3.33
2018-10-18T21:10:01.644Z,3.62
2018-10-18T21:12:30.236Z,3.50
2018-10-18T21:14:59.009Z,3.62
2018-10-18T21:17:27.497Z,3.22
2018-10-18T21:19:56.105Z,3.20
2018-10-18T21:22:24.685Z,3.00
2018-10-18T21:24:53.274Z,3.33
2018-10-18T21:27:21.892Z,3.20
2018-10-18T21:29:50.481Z,2.95
2018-10-18T21:32:18.966Z,2.90
2018-10-18T21:34:47.589Z,3.33
2018-10-18T21:37:16.124Z,2.47
2018-10-18T21:39:44.586Z,3.00
2018-10-18T21:42:13.170Z,2.58
2018-10-18T21:44:41.859Z,2.40
2018-10-18T21:47:10.769Z,2.17
2018-10-18T21:49:39.288Z,2.50
2018-10-18T21:52:07.827Z,2.15
2018-10-18T21:54:36.416Z,2.07
2018-10-18T21:57:05.853Z,1.95
2018-10-18T21:59:34.391Z,2.17
2018-10-18T22:02:03.012Z,2.00
2018-10-18T22:04:31.505Z,2.15
2018-10-18T22:07:00.192Z,2.02
2018-10-18T22:09:28.761Z,1.82
2018-10-18T22:11:57.327Z,1.90
2018-10-18T22:14:26.057Z,1.82
2018-10-18T22:16:54.486Z,1.60
2018-10-18T22:19:23.035Z,1.60
2018-10-18T22:21:51.665Z,2.10
2018-10-18T22:24:20.241Z,1.95
2018-10-18T22:26:48.791Z,1.87
2018-10-18T22:29:17.437Z,1.85
2018-10-18T22:31:45.961Z,1.83
2018-10-18T22:34:14.516Z,1.80
2018-10-18T22:36:43.006Z,1.57
2018-10-18T22:39:12.169Z,1.45
2018-10-18T22:41:41.081Z,1.52
2018-10-18T22:44:10.430Z,1.50
2018-10-18T22:46:39.001Z,1.60
2018-10-18T22:49:07.575Z,1.47
2018-10-18T22:51:36.246Z,1.40
2018-10-18T22:54:05.349Z,1.60
2018-10-18T22:56:34.017Z,1.80
2018-10-18T22:59:02.617Z,1.50
2018-10-18T23:01:31.109Z,1.80
2018-10-18T23:03:59.742Z,1.55
2018-10-18T23:06:28.225Z,1.85
2018-10-18T23:08:56.780Z,1.50
2018-10-18T23:11:25.328Z,2.02
2018-10-18T23:13:53.828Z,1.57
2018-10-18T23:16:22.405Z,1.42
2018-10-18T23:18:50.896Z,1.53
2018-10-18T23:21:19.469Z,1.40
2018-10-18T23:23:47.981Z,1.67
2018-10-18T23:26:16.566Z,1.40
2018-10-18T23:28:45.050Z,1.50
2018-10-18T23:31:13.509Z,1.47
2018-10-18T23:33:42.040Z,1.70
2018-10-18T23:36:10.542Z,1.57
2018-10-18T23:38:39.034Z,1.72
2018-10-18T23:41:07.742Z,1.80
2018-10-18T23:43:36.366Z,1.77
2018-10-18T23:46:05.123Z,1.82
2018-10-18T23:48:33.619Z,1.62
2018-10-18T23:51:02.209Z,1.62
2018-10-18T23:53:30.692Z,1.62
2018-10-18T23:55:59.206Z,1.55
2018-10-18T23:58:27.740Z,1.52
